sensor_id;sensor_type;location;lat;lon;timestamp;P1;durP1;ratioP1;P2;durP2;ratioP2
65831;SDS011;52593;42.648;23.332;2023-10-08T00:01:27;6.57;;;2.10;;
65831;SDS011;52593;42.648;23.332;2023-10-08T00:03:52;8.10;;;2.10;;
65831;SDS011;52593;42.648;23.332;2023-10-08T00:06:23;8.00;;;2.13;;
65831;SDS011;52593;42.648;23.332;2023-10-08T00:08:48;6.50;;;2.28;;
65831;SDS011;52593;42.648;23.332;2023-10-08T00:11:14;6.63;;;2.35;;
65831;SDS011;52593;42.648;23.332;2023-10-08T00:13:43;6.90;;;2.63;;
65831;SDS011;52593;42.648;23.332;2023-10-08T00:16:10;8.20;;;1.98;;
65831;SDS011;52593;42.648;23.332;2023-10-08T00:18:39;8.18;;;2.03;;
65831;SDS011;52593;42.648;23.332;2023-10-08T00:21:14;5.93;;;1.88;;
65831;SDS011;52593;42.648;23.332;2023-10-08T00:23:40;5.53;;;1.88;;
65831;SDS011;52593;42.648;23.332;2023-10-08T00:26:10;6.30;;;2.23;;
65831;SDS011;52593;42.648;23.332;2023-10-08T00:28:35;7.82;;;2.40;;
65831;SDS011;52593;42.648;23.332;2023-10-08T00:31:01;7.30;;;2.15;;
65831;SDS011;52593;42.648;23.332;2023-10-08T00:33:38;7.23;;;2.17;;
65831;SDS011;52593;42.648;23.332;2023-10-08T00:36:04;7.22;;;1.90;;
65831;SDS011;52593;42.648;23.332;2023-10-08T00:38:48;6.15;;;2.10;;
65831;SDS011;52593;42.648;23.332;2023-10-08T00:41:24;6.75;;;1.90;;
65831;SDS011;52593;42.648;23.332;2023-10-08T00:43:53;8.57;;;2.28;;
65831;SDS011;52593;42.648;23.332;2023-10-08T00:46:22;7.83;;;2.03;;
65831;SDS011;52593;42.648;23.332;2023-10-08T00:48:49;6.85;;;2.40;;
65831;SDS011;52593;42.648;23.332;2023-10-08T00:51:19;8.05;;;2.28;;
65831;SDS011;52593;42.648;23.332;2023-10-08T00:54:06;7.10;;;2.90;;
65831;SDS011;52593;42.648;23.332;2023-10-08T00:56:34;5.13;;;1.77;;
65831;SDS011;52593;42.648;23.332;2023-10-08T00:59:22;8.03;;;2.30;;
65831;SDS011;52593;42.648;23.332;2023-10-08T01:01:49;8.18;;;2.45;;
65831;SDS011;52593;42.648;23.332;2023-10-08T01:04:24;7.40;;;2.42;;
65831;SDS011;52593;42.648;23.332;2023-10-08T01:06:54;7.22;;;2.10;;
65831;SDS011;52593;42.648;23.332;2023-10-08T01:09:26;7.82;;;1.92;;
65831;SDS011;52593;42.648;23.332;2023-10-08T01:14:47;6.93;;;2.13;;
65831;SDS011;52593;42.648;23.332;2023-10-08T01:17:14;5.85;;;2.38;;
65831;SDS011;52593;42.648;23.332;2023-10-08T01:19:46;6.50;;;2.15;;
65831;SDS011;52593;42.648;23.332;2023-10-08T01:22:19;5.53;;;2.22;;
65831;SDS011;52593;42.648;23.332;2023-10-08T01:24:47;5.43;;;1.80;;
65831;SDS011;52593;42.648;23.332;2023-10-08T01:27:17;6.30;;;2.05;;
65831;SDS011;52593;42.648;23.332;2023-10-08T01:29:48;9.57;;;2.30;;
65831;SDS011;52593;42.648;23.332;2023-10-08T01:32:18;5.80;;;2.22;;
65831;SDS011;52593;42.648;23.332;2023-10-08T01:34:44;7.43;;;2.40;;
65831;SDS011;52593;42.648;23.332;2023-10-08T01:37:14;7.30;;;2.63;;
65831;SDS011;52593;42.648;23.332;2023-10-08T01:39:46;6.65;;;2.17;;
65831;SDS011;52593;42.648;23.332;2023-10-08T01:42:15;7.25;;;2.13;;
65831;SDS011;52593;42.648;23.332;2023-10-08T01:44:45;7.88;;;2.30;;
65831;SDS011;52593;42.648;23.332;2023-10-08T01:47:15;6.35;;;2.30;;
65831;SDS011;52593;42.648;23.332;2023-10-08T01:49:41;7.23;;;2.27;;
65831;SDS011;52593;42.648;23.332;2023-10-08T01:52:11;6.63;;;2.33;;
65831;SDS011;52593;42.648;23.332;2023-10-08T01:54:46;6.63;;;2.35;;
65831;SDS011;52593;42.648;23.332;2023-10-08T01:57:15;6.68;;;2.38;;
65831;SDS011;52593;42.648;23.332;2023-10-08T01:59:42;7.28;;;2.40;;
65831;SDS011;52593;42.648;23.332;2023-10-08T02:02:09;7.90;;;2.60;;
65831;SDS011;52593;42.648;23.332;2023-10-08T02:04:34;6.63;;;2.58;;
65831;SDS011;52593;42.648;23.332;2023-10-08T02:07:01;6.97;;;2.47;;
65831;SDS011;52593;42.648;23.332;2023-10-08T02:09:32;7.15;;;2.60;;
65831;SDS011;52593;42.648;23.332;2023-10-08T02:11:58;9.48;;;2.58;;
65831;SDS011;52593;42.648;23.332;2023-10-08T02:14:24;8.63;;;2.60;;
65831;SDS011;52593;42.648;23.332;2023-10-08T02:16:49;12.10;;;3.00;;
65831;SDS011;52593;42.648;23.332;2023-10-08T02:19:17;7.37;;;2.43;;
65831;SDS011;52593;42.648;23.332;2023-10-08T02:21:44;9.98;;;2.63;;
65831;SDS011;52593;42.648;23.332;2023-10-08T02:24:12;7.07;;;2.22;;
65831;SDS011;52593;42.648;23.332;2023-10-08T02:26:38;6.97;;;1.97;;
65831;SDS011;52593;42.648;23.332;2023-10-08T02:29:04;7.85;;;2.65;;
65831;SDS011;52593;42.648;23.332;2023-10-08T02:31:38;7.55;;;2.33;;
65831;SDS011;52593;42.648;23.332;2023-10-08T02:34:07;7.63;;;2.65;;
65831;SDS011;52593;42.648;23.332;2023-10-08T02:36:37;7.17;;;2.33;;
65831;SDS011;52593;42.648;23.332;2023-10-08T02:39:05;7.18;;;2.13;;
65831;SDS011;52593;42.648;23.332;2023-10-08T02:41:52;5.43;;;2.10;;
65831;SDS011;52593;42.648;23.332;2023-10-08T02:44:19;7.20;;;2.30;;
65831;SDS011;52593;42.648;23.332;2023-10-08T02:46:46;6.40;;;1.75;;
65831;SDS011;52593;42.648;23.332;2023-10-08T02:49:14;6.27;;;1.97;;
65831;SDS011;52593;42.648;23.332;2023-10-08T02:51:53;6.38;;;2.10;;
65831;SDS011;52593;42.648;23.332;2023-10-08T02:54:20;8.88;;;2.47;;
65831;SDS011;52593;42.648;23.332;2023-10-08T02:56:51;8.23;;;2.20;;
65831;SDS011;52593;42.648;23.332;2023-10-08T02:59:22;6.57;;;2.00;;
65831;SDS011;52593;42.648;23.332;2023-10-08T03:01:48;7.17;;;2.27;;
65831;SDS011;52593;42.648;23.332;2023-10-08T03:04:21;6.10;;;2.00;;
65831;SDS011;52593;42.648;23.332;2023-10-08T03:06:48;6.07;;;2.15;;
65831;SDS011;52593;42.648;23.332;2023-10-08T03:09:18;7.60;;;2.63;;
65831;SDS011;52593;42.648;23.332;2023-10-08T03:11:51;6.27;;;2.20;;
65831;SDS011;52593;42.648;23.332;2023-10-08T03:14:18;7.15;;;2.08;;
65831;SDS011;52593;42.648;23.332;2023-10-08T03:16:48;6.63;;;2.08;;
65831;SDS011;52593;42.648;23.332;2023-10-08T03:19:14;7.18;;;2.15;;
65831;SDS011;52593;42.648;23.332;2023-10-08T03:21:40;7.07;;;2.10;;
65831;SDS011;52593;42.648;23.332;2023-10-08T03:24:05;7.55;;;1.75;;
65831;SDS011;52593;42.648;23.332;2023-10-08T03:27:03;7.27;;;2.27;;
65831;SDS011;52593;42.648;23.332;2023-10-08T03:29:51;7.47;;;2.28;;
65831;SDS011;52593;42.648;23.332;2023-10-08T03:32:19;7.97;;;2.25;;
65831;SDS011;52593;42.648;23.332;2023-10-08T03:34:51;6.93;;;2.60;;
65831;SDS011;52593;42.648;23.332;2023-10-08T03:37:20;8.02;;;2.38;;
65831;SDS011;52593;42.648;23.332;2023-10-08T03:39:54;5.27;;;1.93;;
65831;SDS011;52593;42.648;23.332;2023-10-08T03:42:32;6.00;;;1.92;;
65831;SDS011;52593;42.648;23.332;2023-10-08T03:45:06;5.30;;;1.60;;
65831;SDS011;52593;42.648;23.332;2023-10-08T03:47:38;6.43;;;2.10;;
65831;SDS011;52593;42.648;23.332;2023-10-08T03:50:07;6.47;;;2.40;;
65831;SDS011;52593;42.648;23.332;2023-10-08T03:52:35;8.03;;;2.37;;
65831;SDS011;52593;42.648;23.332;2023-10-08T03:55:06;7.47;;;2.60;;
65831;SDS011;52593;42.648;23.332;2023-10-08T03:57:44;6.15;;;1.92;;
65831;SDS011;52593;42.648;23.332;2023-10-08T04:00:13;7.70;;;2.30;;
65831;SDS011;52593;42.648;23.332;2023-10-08T04:02:46;6.75;;;2.20;;
65831;SDS011;52593;42.648;23.332;2023-10-08T04:05:25;6.00;;;1.87;;
65831;SDS011;52593;42.648;23.332;2023-10-08T04:08:05;7.22;;;2.10;;
65831;SDS011;52593;42.648;23.332;2023-10-08T04:10:42;6.63;;;1.80;;
65831;SDS011;52593;42.648;23.332;2023-10-08T04:13:07;7.70;;;2.30;;
65831;SDS011;52593;42.648;23.332;2023-10-08T04:15:41;6.90;;;2.10;;
65831;SDS011;52593;42.648;23.332;2023-10-08T04:18:10;6.97;;;2.10;;
65831;SDS011;52593;42.648;23.332;2023-10-08T04:20:36;8.80;;;2.60;;
65831;SDS011;52593;42.648;23.332;2023-10-08T04:23:06;7.63;;;1.70;;
65831;SDS011;52593;42.648;23.332;2023-10-08T04:25:43;7.30;;;2.38;;
65831;SDS011;52593;42.648;23.332;2023-10-08T04:28:09;9.43;;;2.35;;
65831;SDS011;52593;42.648;23.332;2023-10-08T04:30:39;8.50;;;1.90;;
65831;SDS011;52593;42.648;23.332;2023-10-08T04:33:07;5.75;;;2.10;;
65831;SDS011;52593;42.648;23.332;2023-10-08T04:35:38;5.87;;;1.90;;
65831;SDS011;52593;42.648;23.332;2023-10-08T04:38:20;6.35;;;2.20;;
65831;SDS011;52593;42.648;23.332;2023-10-08T04:40:47;7.07;;;2.38;;
65831;SDS011;52593;42.648;23.332;2023-10-08T04:43:20;6.57;;;1.73;;
65831;SDS011;52593;42.648;23.332;2023-10-08T04:45:50;7.32;;;2.47;;
65831;SDS011;52593;42.648;23.332;2023-10-08T04:48:16;5.57;;;1.97;;
65831;SDS011;52593;42.648;23.332;2023-10-08T04:50:46;7.70;;;1.77;;
65831;SDS011;52593;42.648;23.332;2023-10-08T04:53:23;6.88;;;2.13;;
65831;SDS011;52593;42.648;23.332;2023-10-08T04:55:56;6.80;;;1.75;;
65831;SDS011;52593;42.648;23.332;2023-10-08T04:58:21;6.83;;;2.33;;
65831;SDS011;52593;42.648;23.332;2023-10-08T05:00:58;6.82;;;2.05;;
65831;SDS011;52593;42.648;23.332;2023-10-08T05:03:25;5.70;;;1.95;;
65831;SDS011;52593;42.648;23.332;2023-10-08T05:05:57;6.03;;;2.05;;
65831;SDS011;52593;42.648;23.332;2023-10-08T05:08:34;5.90;;;2.13;;
65831;SDS011;52593;42.648;23.332;2023-10-08T05:11:18;7.40;;;2.30;;
65831;SDS011;52593;42.648;23.332;2023-10-08T05:14:04;5.63;;;1.85;;
65831;SDS011;52593;42.648;23.332;2023-10-08T05:16:41;6.20;;;2.15;;
65831;SDS011;52593;42.648;23.332;2023-10-08T05:19:25;6.72;;;2.30;;
65831;SDS011;52593;42.648;23.332;2023-10-08T05:22:10;5.87;;;2.00;;
65831;SDS011;52593;42.648;23.332;2023-10-08T05:24:50;8.07;;;2.25;;
65831;SDS011;52593;42.648;23.332;2023-10-08T05:27:34;7.93;;;2.15;;
65831;SDS011;52593;42.648;23.332;2023-10-08T05:30:16;7.82;;;2.28;;
65831;SDS011;52593;42.648;23.332;2023-10-08T05:32:57;5.47;;;1.80;;
65831;SDS011;52593;42.648;23.332;2023-10-08T05:35:39;7.93;;;2.17;;
65831;SDS011;52593;42.648;23.332;2023-10-08T05:38:05;7.40;;;2.40;;
65831;SDS011;52593;42.648;23.332;2023-10-08T05:40:51;7.15;;;1.92;;
65831;SDS011;52593;42.648;23.332;2023-10-08T05:43:23;9.68;;;2.70;;
65831;SDS011;52593;42.648;23.332;2023-10-08T05:46:14;8.60;;;2.17;;
65831;SDS011;52593;42.648;23.332;2023-10-08T05:48:50;6.53;;;2.03;;
65831;SDS011;52593;42.648;23.332;2023-10-08T05:51:28;6.90;;;2.03;;
65831;SDS011;52593;42.648;23.332;2023-10-08T05:54:30;6.38;;;2.20;;
65831;SDS011;52593;42.648;23.332;2023-10-08T05:57:00;5.22;;;1.75;;
65831;SDS011;52593;42.648;23.332;2023-10-08T05:59:47;6.88;;;2.30;;
65831;SDS011;52593;42.648;23.332;2023-10-08T06:04:54;6.75;;;2.05;;
65831;SDS011;52593;42.648;23.332;2023-10-08T06:07:37;6.20;;;2.20;;
65831;SDS011;52593;42.648;23.332;2023-10-08T06:10:16;6.65;;;2.35;;
65831;SDS011;52593;42.648;23.332;2023-10-08T06:12:54;7.07;;;2.00;;
65831;SDS011;52593;42.648;23.332;2023-10-08T06:15:27;6.03;;;2.03;;
65831;SDS011;52593;42.648;23.332;2023-10-08T06:18:09;9.38;;;2.53;;
65831;SDS011;52593;42.648;23.332;2023-10-08T06:20:39;6.50;;;2.13;;
65831;SDS011;52593;42.648;23.332;2023-10-08T06:23:08;7.85;;;2.58;;
65831;SDS011;52593;42.648;23.332;2023-10-08T06:25:37;6.60;;;2.47;;
65831;SDS011;52593;42.648;23.332;2023-10-08T06:28:14;8.10;;;2.10;;
65831;SDS011;52593;42.648;23.332;2023-10-08T06:30:49;6.78;;;2.20;;
65831;SDS011;52593;42.648;23.332;2023-10-08T06:33:19;9.10;;;2.40;;
65831;SDS011;52593;42.648;23.332;2023-10-08T06:35:45;7.07;;;2.20;;
65831;SDS011;52593;42.648;23.332;2023-10-08T06:38:26;7.90;;;2.75;;
65831;SDS011;52593;42.648;23.332;2023-10-08T06:40:54;9.23;;;2.67;;
65831;SDS011;52593;42.648;23.332;2023-10-08T06:43:21;9.63;;;3.10;;
65831;SDS011;52593;42.648;23.332;2023-10-08T06:45:47;7.50;;;2.63;;
65831;SDS011;52593;42.648;23.332;2023-10-08T06:48:17;8.40;;;2.35;;
65831;SDS011;52593;42.648;23.332;2023-10-08T06:50:52;6.85;;;2.45;;
65831;SDS011;52593;42.648;23.332;2023-10-08T06:53:32;9.18;;;2.42;;
65831;SDS011;52593;42.648;23.332;2023-10-08T06:55:59;11.20;;;2.40;;
65831;SDS011;52593;42.648;23.332;2023-10-08T06:58:29;9.43;;;2.60;;
65831;SDS011;52593;42.648;23.332;2023-10-08T07:00:58;7.65;;;2.58;;
65831;SDS011;52593;42.648;23.332;2023-10-08T07:03:29;8.68;;;2.35;;
65831;SDS011;52593;42.648;23.332;2023-10-08T07:05:56;7.72;;;2.55;;
65831;SDS011;52593;42.648;23.332;2023-10-08T07:08:29;13.02;;;2.70;;
65831;SDS011;52593;42.648;23.332;2023-10-08T07:11:01;7.57;;;2.13;;
65831;SDS011;52593;42.648;23.332;2023-10-08T07:13:31;11.15;;;2.53;;
65831;SDS011;52593;42.648;23.332;2023-10-08T07:15:57;11.60;;;2.38;;
65831;SDS011;52593;42.648;23.332;2023-10-08T07:18:25;9.57;;;2.78;;
65831;SDS011;52593;42.648;23.332;2023-10-08T07:20:51;8.37;;;2.70;;
65831;SDS011;52593;42.648;23.332;2023-10-08T07:23:21;9.23;;;2.88;;
65831;SDS011;52593;42.648;23.332;2023-10-08T07:26:02;9.15;;;2.97;;
65831;SDS011;52593;42.648;23.332;2023-10-08T07:28:43;8.50;;;2.70;;
65831;SDS011;52593;42.648;23.332;2023-10-08T07:31:15;12.63;;;2.83;;
65831;SDS011;52593;42.648;23.332;2023-10-08T07:33:46;8.02;;;2.75;;
65831;SDS011;52593;42.648;23.332;2023-10-08T07:36:13;10.32;;;2.95;;
65831;SDS011;52593;42.648;23.332;2023-10-08T07:38:40;7.85;;;2.78;;
65831;SDS011;52593;42.648;23.332;2023-10-08T07:41:08;8.40;;;2.97;;
65831;SDS011;52593;42.648;23.332;2023-10-08T07:43:43;9.70;;;2.83;;
65831;SDS011;52593;42.648;23.332;2023-10-08T07:46:09;9.10;;;2.78;;
65831;SDS011;52593;42.648;23.332;2023-10-08T07:48:38;6.10;;;2.35;;
65831;SDS011;52593;42.648;23.332;2023-10-08T07:51:09;9.20;;;3.55;;
65831;SDS011;52593;42.648;23.332;2023-10-08T07:53:35;11.63;;;5.93;;
65831;SDS011;52593;42.648;23.332;2023-10-08T07:56:04;9.27;;;3.40;;
65831;SDS011;52593;42.648;23.332;2023-10-08T07:58:32;8.77;;;2.80;;
65831;SDS011;52593;42.648;23.332;2023-10-08T08:01:02;9.37;;;2.70;;
65831;SDS011;52593;42.648;23.332;2023-10-08T08:03:32;6.90;;;1.60;;
65831;SDS011;52593;42.648;23.332;2023-10-08T08:05:59;5.80;;;1.38;;
65831;SDS011;52593;42.648;23.332;2023-10-08T08:08:25;4.60;;;1.15;;
65831;SDS011;52593;42.648;23.332;2023-10-08T08:10:52;4.88;;;1.20;;
65831;SDS011;52593;42.648;23.332;2023-10-08T08:13:28;5.00;;;1.10;;
65831;SDS011;52593;42.648;23.332;2023-10-08T08:15:54;3.63;;;0.95;;
65831;SDS011;52593;42.648;23.332;2023-10-08T08:18:23;6.55;;;1.00;;
65831;SDS011;52593;42.648;23.332;2023-10-08T08:20:50;4.20;;;1.20;;
65831;SDS011;52593;42.648;23.332;2023-10-08T08:23:16;4.75;;;1.27;;
65831;SDS011;52593;42.648;23.332;2023-10-08T08:25:42;5.22;;;1.27;;
65831;SDS011;52593;42.648;23.332;2023-10-08T08:28:20;4.00;;;0.90;;
65831;SDS011;52593;42.648;23.332;2023-10-08T08:30:49;4.10;;;1.33;;
65831;SDS011;52593;42.648;23.332;2023-10-08T08:33:17;5.90;;;1.25;;
65831;SDS011;52593;42.648;23.332;2023-10-08T08:36:00;7.40;;;2.22;;
65831;SDS011;52593;42.648;23.332;2023-10-08T08:38:26;4.22;;;0.95;;
65831;SDS011;52593;42.648;23.332;2023-10-08T08:41:03;4.37;;;0.97;;
65831;SDS011;52593;42.648;23.332;2023-10-08T08:43:34;5.03;;;1.45;;
65831;SDS011;52593;42.648;23.332;2023-10-08T08:46:01;4.78;;;1.40;;
65831;SDS011;52593;42.648;23.332;2023-10-08T08:48:30;6.95;;;1.50;;
65831;SDS011;52593;42.648;23.332;2023-10-08T08:50:57;5.72;;;1.30;;
65831;SDS011;52593;42.648;23.332;2023-10-08T08:53:23;5.73;;;1.50;;
65831;SDS011;52593;42.648;23.332;2023-10-08T08:55:49;4.70;;;1.13;;
65831;SDS011;52593;42.648;23.332;2023-10-08T08:58:17;9.30;;;1.45;;
65831;SDS011;52593;42.648;23.332;2023-10-08T09:00:43;3.73;;;0.90;;
65831;SDS011;52593;42.648;23.332;2023-10-08T09:03:12;6.15;;;1.27;;
65831;SDS011;52593;42.648;23.332;2023-10-08T09:05:38;6.72;;;1.60;;
65831;SDS011;52593;42.648;23.332;2023-10-08T09:08:06;6.05;;;1.73;;
65831;SDS011;52593;42.648;23.332;2023-10-08T09:10:33;3.50;;;1.00;;
65831;SDS011;52593;42.648;23.332;2023-10-08T09:13:03;5.93;;;1.50;;
65831;SDS011;52593;42.648;23.332;2023-10-08T09:15:29;5.30;;;1.27;;
65831;SDS011;52593;42.648;23.332;2023-10-08T09:17:57;5.75;;;1.25;;
65831;SDS011;52593;42.648;23.332;2023-10-08T09:20:27;8.43;;;1.65;;
65831;SDS011;52593;42.648;23.332;2023-10-08T09:23:09;6.25;;;1.33;;
65831;SDS011;52593;42.648;23.332;2023-10-08T09:25:37;5.57;;;1.47;;
65831;SDS011;52593;42.648;23.332;2023-10-08T09:28:04;5.35;;;1.50;;
65831;SDS011;52593;42.648;23.332;2023-10-08T09:30:33;5.63;;;1.30;;
65831;SDS011;52593;42.648;23.332;2023-10-08T09:33:06;6.03;;;1.45;;
65831;SDS011;52593;42.648;23.332;2023-10-08T09:35:33;5.90;;;1.40;;
65831;SDS011;52593;42.648;23.332;2023-10-08T09:38:02;4.97;;;1.40;;
65831;SDS011;52593;42.648;23.332;2023-10-08T09:40:28;7.38;;;1.83;;
65831;SDS011;52593;42.648;23.332;2023-10-08T09:42:54;6.45;;;1.83;;
65831;SDS011;52593;42.648;23.332;2023-10-08T09:45:20;6.55;;;1.38;;
65831;SDS011;52593;42.648;23.332;2023-10-08T09:47:49;6.75;;;1.60;;
65831;SDS011;52593;42.648;23.332;2023-10-08T09:50:18;4.93;;;1.33;;
65831;SDS011;52593;42.648;23.332;2023-10-08T09:52:49;4.45;;;1.13;;
65831;SDS011;52593;42.648;23.332;2023-10-08T09:55:36;6.38;;;1.30;;
65831;SDS011;52593;42.648;23.332;2023-10-08T09:58:07;5.28;;;1.52;;
65831;SDS011;52593;42.648;23.332;2023-10-08T10:00:38;7.10;;;1.63;;
65831;SDS011;52593;42.648;23.332;2023-10-08T10:03:05;5.83;;;1.20;;
65831;SDS011;52593;42.648;23.332;2023-10-08T10:05:32;5.50;;;1.50;;
65831;SDS011;52593;42.648;23.332;2023-10-08T10:08:02;5.28;;;1.33;;
65831;SDS011;52593;42.648;23.332;2023-10-08T10:10:31;4.13;;;1.13;;
65831;SDS011;52593;42.648;23.332;2023-10-08T10:13:03;5.93;;;1.33;;
65831;SDS011;52593;42.648;23.332;2023-10-08T10:15:31;4.17;;;0.90;;
65831;SDS011;52593;42.648;23.332;2023-10-08T10:20:44;5.25;;;1.67;;
65831;SDS011;52593;42.648;23.332;2023-10-08T10:31:35;8.20;;;1.17;;
65831;SDS011;52593;42.648;23.332;2023-10-08T10:34:05;6.03;;;1.30;;
65831;SDS011;52593;42.648;23.332;2023-10-08T10:36:33;4.65;;;1.25;;
65831;SDS011;52593;42.648;23.332;2023-10-08T10:38:59;4.35;;;1.15;;
65831;SDS011;52593;42.648;23.332;2023-10-08T10:41:25;5.50;;;1.23;;
65831;SDS011;52593;42.648;23.332;2023-10-08T10:43:52;5.57;;;1.23;;
65831;SDS011;52593;42.648;23.332;2023-10-08T10:46:18;5.13;;;1.58;;
65831;SDS011;52593;42.648;23.332;2023-10-08T10:48:54;6.65;;;1.40;;
65831;SDS011;52593;42.648;23.332;2023-10-08T10:51:42;5.33;;;1.07;;
65831;SDS011;52593;42.648;23.332;2023-10-08T10:54:08;4.95;;;1.10;;
65831;SDS011;52593;42.648;23.332;2023-10-08T10:56:35;4.18;;;1.23;;
65831;SDS011;52593;42.648;23.332;2023-10-08T10:59:08;4.60;;;1.00;;
65831;SDS011;52593;42.648;23.332;2023-10-08T11:01:52;4.53;;;1.10;;
65831;SDS011;52593;42.648;23.332;2023-10-08T11:04:30;6.03;;;1.30;;
65831;SDS011;52593;42.648;23.332;2023-10-08T11:06:55;4.82;;;1.40;;
65831;SDS011;52593;42.648;23.332;2023-10-08T11:09:26;5.33;;;1.30;;
65831;SDS011;52593;42.648;23.332;2023-10-08T11:12:03;6.18;;;1.50;;
65831;SDS011;52593;42.648;23.332;2023-10-08T11:14:37;4.70;;;1.20;;
65831;SDS011;52593;42.648;23.332;2023-10-08T11:17:15;4.90;;;1.50;;
65831;SDS011;52593;42.648;23.332;2023-10-08T11:19:45;9.98;;;1.30;;
65831;SDS011;52593;42.648;23.332;2023-10-08T11:22:14;4.40;;;1.00;;
65831;SDS011;52593;42.648;23.332;2023-10-08T11:24:46;5.97;;;1.00;;
65831;SDS011;52593;42.648;23.332;2023-10-08T11:27:19;4.68;;;1.17;;
65831;SDS011;52593;42.648;23.332;2023-10-08T11:30:03;6.38;;;1.02;;
65831;SDS011;52593;42.648;23.332;2023-10-08T11:32:35;5.63;;;1.30;;
65831;SDS011;52593;42.648;23.332;2023-10-08T11:35:03;5.23;;;1.13;;
65831;SDS011;52593;42.648;23.332;2023-10-08T11:37:44;6.20;;;1.20;;
65831;SDS011;52593;42.648;23.332;2023-10-08T11:40:34;5.43;;;1.40;;
65831;SDS011;52593;42.648;23.332;2023-10-08T11:43:14;4.45;;;1.10;;
65831;SDS011;52593;42.648;23.332;2023-10-08T11:45:41;4.93;;;1.25;;
65831;SDS011;52593;42.648;23.332;2023-10-08T11:48:13;3.57;;;0.80;;
65831;SDS011;52593;42.648;23.332;2023-10-08T11:50:42;6.18;;;1.48;;
65831;SDS011;52593;42.648;23.332;2023-10-08T11:53:08;5.25;;;1.05;;
65831;SDS011;52593;42.648;23.332;2023-10-08T11:55:36;10.20;;;2.05;;
65831;SDS011;52593;42.648;23.332;2023-10-08T11:58:06;6.50;;;1.15;;
65831;SDS011;52593;42.648;23.332;2023-10-08T12:00:44;9.67;;;1.83;;
65831;SDS011;52593;42.648;23.332;2023-10-08T12:03:13;5.13;;;1.10;;
65831;SDS011;52593;42.648;23.332;2023-10-08T12:05:45;5.40;;;1.00;;
65831;SDS011;52593;42.648;23.332;2023-10-08T12:08:14;6.30;;;1.65;;
65831;SDS011;52593;42.648;23.332;2023-10-08T12:10:43;6.75;;;1.20;;
65831;SDS011;52593;42.648;23.332;2023-10-08T12:13:13;5.17;;;1.10;;
65831;SDS011;52593;42.648;23.332;2023-10-08T12:15:41;3.67;;;0.85;;
65831;SDS011;52593;42.648;23.332;2023-10-08T12:18:09;4.80;;;1.23;;
65831;SDS011;52593;42.648;23.332;2023-10-08T12:20:41;4.45;;;1.20;;
65831;SDS011;52593;42.648;23.332;2023-10-08T12:23:11;5.18;;;1.23;;
65831;SDS011;52593;42.648;23.332;2023-10-08T12:25:43;6.53;;;1.47;;
65831;SDS011;52593;42.648;23.332;2023-10-08T12:28:16;7.35;;;1.17;;
65831;SDS011;52593;42.648;23.332;2023-10-08T12:30:44;11.43;;;1.30;;
65831;SDS011;52593;42.648;23.332;2023-10-08T12:33:11;4.40;;;1.00;;
65831;SDS011;52593;42.648;23.332;2023-10-08T12:35:41;7.40;;;1.73;;
65831;SDS011;52593;42.648;23.332;2023-10-08T12:38:08;6.07;;;1.47;;
65831;SDS011;52593;42.648;23.332;2023-10-08T12:40:34;5.65;;;1.45;;
65831;SDS011;52593;42.648;23.332;2023-10-08T12:43:24;5.32;;;1.35;;
65831;SDS011;52593;42.648;23.332;2023-10-08T12:45:54;5.50;;;1.55;;
65831;SDS011;52593;42.648;23.332;2023-10-08T12:48:26;7.28;;;1.85;;
65831;SDS011;52593;42.648;23.332;2023-10-08T12:50:53;7.90;;;1.40;;
65831;SDS011;52593;42.648;23.332;2023-10-08T12:53:25;5.15;;;1.17;;
65831;SDS011;52593;42.648;23.332;2023-10-08T12:55:52;9.68;;;1.55;;
65831;SDS011;52593;42.648;23.332;2023-10-08T12:58:25;12.35;;;2.17;;
65831;SDS011;52593;42.648;23.332;2023-10-08T13:00:54;11.38;;;1.67;;
65831;SDS011;52593;42.648;23.332;2023-10-08T13:03:26;8.40;;;1.37;;
65831;SDS011;52593;42.648;23.332;2023-10-08T13:05:55;3.95;;;0.65;;
65831;SDS011;52593;42.648;23.332;2023-10-08T13:08:32;6.20;;;1.30;;
65831;SDS011;52593;42.648;23.332;2023-10-08T13:10:59;3.78;;;0.98;;
65831;SDS011;52593;42.648;23.332;2023-10-08T13:13:26;5.50;;;1.40;;
65831;SDS011;52593;42.648;23.332;2023-10-08T13:15:58;8.90;;;1.27;;
65831;SDS011;52593;42.648;23.332;2023-10-08T13:18:28;6.10;;;1.10;;
65831;SDS011;52593;42.648;23.332;2023-10-08T13:20:54;5.68;;;1.35;;
65831;SDS011;52593;42.648;23.332;2023-10-08T13:23:20;7.82;;;1.13;;
65831;SDS011;52593;42.648;23.332;2023-10-08T13:25:49;4.83;;;1.10;;
65831;SDS011;52593;42.648;23.332;2023-10-08T13:28:22;5.97;;;1.02;;
65831;SDS011;52593;42.648;23.332;2023-10-08T13:30:51;6.93;;;1.48;;
65831;SDS011;52593;42.648;23.332;2023-10-08T13:33:20;5.22;;;1.48;;
65831;SDS011;52593;42.648;23.332;2023-10-08T13:35:48;5.88;;;1.20;;
65831;SDS011;52593;42.648;23.332;2023-10-08T13:38:17;7.33;;;1.40;;
65831;SDS011;52593;42.648;23.332;2023-10-08T13:40:51;5.95;;;1.30;;
65831;SDS011;52593;42.648;23.332;2023-10-08T13:43:34;5.53;;;1.45;;
65831;SDS011;52593;42.648;23.332;2023-10-08T13:46:04;5.10;;;1.30;;
65831;SDS011;52593;42.648;23.332;2023-10-08T13:48:50;5.13;;;0.90;;
65831;SDS011;52593;42.648;23.332;2023-10-08T13:51:16;7.70;;;1.93;;
65831;SDS011;52593;42.648;23.332;2023-10-08T13:53:49;5.50;;;1.60;;
65831;SDS011;52593;42.648;23.332;2023-10-08T13:56:18;7.28;;;1.40;;
65831;SDS011;52593;42.648;23.332;2023-10-08T13:58:50;7.03;;;1.50;;
65831;SDS011;52593;42.648;23.332;2023-10-08T14:01:21;3.13;;;0.80;;
65831;SDS011;52593;42.648;23.332;2023-10-08T14:03:49;8.45;;;1.38;;
65831;SDS011;52593;42.648;23.332;2023-10-08T14:06:19;3.60;;;1.00;;
65831;SDS011;52593;42.648;23.332;2023-10-08T14:08:45;3.88;;;0.77;;
65831;SDS011;52593;42.648;23.332;2023-10-08T14:11:17;6.88;;;1.23;;
65831;SDS011;52593;42.648;23.332;2023-10-08T14:13:49;5.93;;;1.55;;
65831;SDS011;52593;42.648;23.332;2023-10-08T14:16:21;9.52;;;2.22;;
65831;SDS011;52593;42.648;23.332;2023-10-08T14:18:52;6.93;;;1.60;;
65831;SDS011;52593;42.648;23.332;2023-10-08T14:21:24;6.32;;;1.08;;
65831;SDS011;52593;42.648;23.332;2023-10-08T14:23:58;7.10;;;1.45;;
65831;SDS011;52593;42.648;23.332;2023-10-08T14:26:30;6.40;;;1.08;;
65831;SDS011;52593;42.648;23.332;2023-10-08T14:29:02;6.65;;;1.38;;
65831;SDS011;52593;42.648;23.332;2023-10-08T14:31:40;4.33;;;0.80;;
65831;SDS011;52593;42.648;23.332;2023-10-08T14:34:09;4.95;;;0.80;;
65831;SDS011;52593;42.648;23.332;2023-10-08T14:36:43;5.22;;;0.80;;
65831;SDS011;52593;42.648;23.332;2023-10-08T14:39:31;6.97;;;1.20;;
65831;SDS011;52593;42.648;23.332;2023-10-08T14:42:16;5.07;;;1.30;;
65831;SDS011;52593;42.648;23.332;2023-10-08T14:45:01;9.00;;;1.27;;
65831;SDS011;52593;42.648;23.332;2023-10-08T14:47:27;7.47;;;1.50;;
65831;SDS011;52593;42.648;23.332;2023-10-08T14:49:53;4.63;;;0.88;;
65831;SDS011;52593;42.648;23.332;2023-10-08T14:52:18;7.17;;;1.33;;
65831;SDS011;52593;42.648;23.332;2023-10-08T14:54:44;5.85;;;1.33;;
65831;SDS011;52593;42.648;23.332;2023-10-08T14:57:10;8.05;;;1.88;;
65831;SDS011;52593;42.648;23.332;2023-10-08T14:59:39;6.80;;;1.27;;
65831;SDS011;52593;42.648;23.332;2023-10-08T15:02:07;6.55;;;1.27;;
65831;SDS011;52593;42.648;23.332;2023-10-08T15:04:35;5.60;;;1.27;;
65831;SDS011;52593;42.648;23.332;2023-10-08T15:07:04;7.47;;;1.52;;
65831;SDS011;52593;42.648;23.332;2023-10-08T15:09:33;6.20;;;1.00;;
65831;SDS011;52593;42.648;23.332;2023-10-08T15:11:59;6.53;;;1.00;;
65831;SDS011;52593;42.648;23.332;2023-10-08T15:14:24;6.77;;;1.07;;